createdAt,value
2023-01-11T00:00:46.632Z,8.87
2023-01-11T00:03:14.691Z,9.07
2023-01-11T00:05:43.848Z,8.95
2023-01-11T00:08:13.671Z,9.18
2023-01-11T00:10:41.333Z,9.12
2023-01-11T00:13:09.037Z,8.91
2023-01-11T00:15:38.201Z,9.12
2023-01-11T00:18:06.171Z,9.30
2023-01-11T00:20:33.998Z,9.12
2023-01-11T00:23:01.797Z,9.11
2023-01-11T00:25:30.911Z,9.16
2023-01-11T00:27:58.646Z,9.12
2023-01-11T00:30:26.433Z,9.03
2023-01-11T00:32:56.832Z,9.21
2023-01-11T00:35:24.828Z,9.36
2023-01-11T00:37:54.316Z,9.17
2023-01-11T00:40:23.930Z,8.95
2023-01-11T00:43:10.923Z,9.23
2023-01-11T00:45:56.374Z,9.11
2023-01-11T00:48:24.254Z,9.16
2023-01-11T00:50:56.262Z,9.04
2023-01-11T00:53:24.071Z,9.33
2023-01-11T00:55:51.820Z,9.11
2023-01-11T00:58:20.871Z,9.12
2023-01-11T01:00:48.573Z,9.12
2023-01-11T01:03:17.049Z,9.11
2023-01-11T01:05:44.780Z,9.33
2023-01-11T01:08:12.441Z,9.28
2023-01-11T01:10:40.194Z,9.35
2023-01-11T01:13:25.352Z,9.22
2023-01-11T01:15:59.034Z,9.15
2023-01-11T01:18:26.845Z,9.16
2023-01-11T01:20:54.531Z,9.10
2023-01-11T01:23:22.261Z,9.28
2023-01-11T01:25:49.941Z,9.26
2023-01-11T01:28:18.764Z,9.38
2023-01-11T01:30:51.226Z,9.39
2023-01-11T01:33:20.531Z,9.22
2023-01-11T01:35:48.333Z,9.23
2023-01-11T01:38:16.092Z,9.19
2023-01-11T01:40:44.487Z,9.18
2023-01-11T01:43:12.734Z,9.29
2023-01-11T01:45:41.420Z,9.29
2023-01-11T01:48:13.494Z,9.25
2023-01-11T01:50:47.402Z,9.28
2023-01-11T01:53:18.702Z,9.15
2023-01-11T01:55:50.219Z,9.17
2023-01-11T01:58:22.740Z,9.17
2023-01-11T02:00:50.549Z,9.04
2023-01-11T02:03:21.193Z,9.04
2023-01-11T02:05:52.645Z,9.21
2023-01-11T02:08:27.324Z,8.96
2023-01-11T02:10:55.905Z,8.88
2023-01-11T02:13:23.765Z,9.05
2023-01-11T02:16:07.656Z,9.03
2023-01-11T02:18:36.280Z,9.04
2023-01-11T02:21:18.896Z,8.96
2023-01-11T02:24:11.085Z,8.96
2023-01-11T02:27:11.429Z,9.15
2023-01-11T02:29:49.286Z,9.05
2023-01-11T02:32:27.725Z,8.94
2023-01-11T02:35:05.788Z,9.08
2023-01-11T02:37:44.015Z,9.06
2023-01-11T02:40:22.215Z,9.17
2023-01-11T02:43:10.770Z,8.97
2023-01-11T02:45:48.350Z,9.00
2023-01-11T02:48:25.594Z,9.06
2023-01-11T02:51:03.340Z,9.31
2023-01-11T02:53:37.729Z,9.19
2023-01-11T02:56:11.768Z,9.45
2023-01-11T02:58:43.061Z,9.26
2023-01-11T03:01:13.436Z,9.37
2023-01-11T03:03:41.585Z,9.31
2023-01-11T03:06:15.035Z,9.25
2023-01-11T03:09:09.241Z,9.32
2023-01-11T03:12:08.572Z,9.27
2023-01-11T03:14:47.702Z,9.45
2023-01-11T03:17:29.801Z,9.58
2023-01-11T03:20:07.503Z,9.58
2023-01-11T03:22:44.544Z,9.66
2023-01-11T03:25:18.525Z,9.54
2023-01-11T03:27:53.923Z,9.62
2023-01-11T03:30:28.017Z,9.62
2023-01-11T03:33:04.084Z,9.69
2023-01-11T03:35:38.620Z,9.65
2023-01-11T03:38:11.696Z,9.47
2023-01-11T03:40:43.321Z,9.50
2023-01-11T03:43:13.647Z,9.77
2023-01-11T03:45:47.020Z,9.71
2023-01-11T03:48:21.026Z,9.75
2023-01-11T03:50:52.461Z,9.87
2023-01-11T03:53:23.877Z,9.74
2023-01-11T03:55:55.706Z,9.70
2023-01-11T03:58:23.571Z,9.67
2023-01-11T04:00:52.052Z,9.67
2023-01-11T04:03:21.093Z,9.77
2023-01-11T04:05:51.869Z,9.76
2023-01-11T04:08:19.649Z,9.89
2023-01-11T04:10:47.348Z,9.98
2023-01-11T04:13:15.042Z,10.00
2023-01-11T04:15:42.747Z,9.78
2023-01-11T04:18:10.456Z,9.72
2023-01-11T04:20:41.380Z,9.77
2023-01-11T04:25:49.230Z,9.92
2023-01-11T04:28:17.142Z,9.93
2023-01-11T04:30:44.960Z,9.88
2023-01-11T04:33:14.560Z,9.94
2023-01-11T04:35:44.594Z,10.10
2023-01-11T04:38:12.609Z,9.91
2023-01-11T04:40:40.268Z,9.83
2023-01-11T04:43:07.048Z,10.00
2023-01-11T04:45:34.842Z,9.89
2023-01-11T04:48:02.648Z,10.08
2023-01-11T04:50:30.461Z,9.97
2023-01-11T04:53:00.316Z,10.09
2023-01-11T04:55:28.047Z,10.26
2023-01-11T04:57:55.759Z,10.11
2023-01-11T05:00:23.661Z,10.28
2023-01-11T05:02:51.375Z,10.20
2023-01-11T05:05:19.312Z,10.25
2023-01-11T05:07:49.298Z,10.36
2023-01-11T05:10:20.897Z,10.27
2023-01-11T05:12:48.938Z,10.05
2023-01-11T05:15:16.652Z,10.12
2023-01-11T05:17:44.456Z,9.96
2023-01-11T05:20:12.798Z,9.77
2023-01-11T05:22:40.481Z,9.89
2023-01-11T05:25:09.108Z,9.80
2023-01-11T05:27:38.128Z,9.88
2023-01-11T05:30:06.819Z,9.93
2023-01-11T05:32:34.567Z,9.97
2023-01-11T05:35:02.302Z,9.77
2023-01-11T05:37:30.768Z,9.86
2023-01-11T05:39:58.448Z,9.96
2023-01-11T05:42:26.126Z,10.00
2023-01-11T05:45:12.579Z,9.86
2023-01-11T05:47:40.311Z,9.92
2023-01-11T05:50:08.707Z,9.92
2023-01-11T05:52:36.443Z,9.82
2023-01-11T05:55:04.165Z,9.99
2023-01-11T05:57:31.954Z,10.05
2023-01-11T06:00:01.046Z,9.96
2023-01-11T06:02:35.510Z,9.92
2023-01-11T06:05:03.663Z,9.98
2023-01-11T06:07:31.404Z,9.91
2023-01-11T06:09:59.143Z,9.95
2023-01-11T06:12:26.939Z,10.08
2023-01-11T06:14:54.738Z,9.91
2023-01-11T06:17:23.835Z,9.99
2023-01-11T06:19:51.547Z,10.06
2023-01-11T06:22:19.336Z,13.03
2023-01-11T06:24:47.129Z,11.00
2023-01-11T06:27:14.819Z,10.09
2023-01-11T06:29:42.497Z,10.26
2023-01-11T06:32:10.936Z,10.42
2023-01-11T06:34:40.390Z,10.33
2023-01-11T06:37:08.109Z,10.20
2023-01-11T06:39:35.859Z,10.37
2023-01-11T06:42:03.534Z,10.43
2023-01-11T06:44:31.230Z,10.25
2023-01-11T06:46:58.948Z,10.09
2023-01-11T06:49:26.679Z,10.11
2023-01-11T06:51:55.985Z,10.19
2023-01-11T06:54:25.605Z,10.35
2023-01-11T06:56:53.297Z,10.15
2023-01-11T06:59:21.017Z,10.29
2023-01-11T07:01:48.835Z,10.05
2023-01-11T07:04:18.632Z,9.89
2023-01-11T07:06:46.540Z,9.92
2023-01-11T07:09:15.593Z,9.87
2023-01-11T07:11:43.427Z,10.05
2023-01-11T07:14:12.096Z,10.13
2023-01-11T07:16:39.748Z,9.96
2023-01-11T07:19:07.558Z,10.12
2023-01-11T07:21:35.282Z,10.06
2023-01-11T07:24:03.114Z,9.91
2023-01-11T07:26:33.007Z,10.02
2023-01-11T07:29:00.799Z,10.06
2023-01-11T07:31:28.562Z,9.87
2023-01-11T07:33:56.338Z,9.89
2023-01-11T07:36:24.030Z,10.05
2023-01-11T07:38:51.770Z,10.09
2023-01-11T07:41:39.095Z,10.08
2023-01-11T07:44:13.687Z,10.24
2023-01-11T07:46:41.615Z,10.08
2023-01-11T07:49:09.442Z,9.93
2023-01-11T07:51:37.183Z,10.21
2023-01-11T07:54:04.900Z,10.26
2023-01-11T07:56:32.816Z,10.12
2023-01-11T07:59:00.623Z,10.20
2023-01-11T08:01:29.680Z,10.06
2023-01-11T08:03:57.397Z,10.14
2023-01-11T08:06:25.083Z,10.04
2023-01-11T08:08:52.841Z,10.11
2023-01-11T08:11:37.923Z,10.26
2023-01-11T08:14:34.650Z,10.40
2023-01-11T08:17:03.706Z,10.40
2023-01-11T08:19:31.507Z,10.32
2023-01-11T08:21:59.382Z,10.28
2023-01-11T08:24:27.191Z,10.38
2023-01-11T08:26:54.985Z,10.32
2023-01-11T08:29:23.063Z,10.39
2023-01-11T08:31:50.925Z,10.48
2023-01-11T08:34:20.041Z,10.48
2023-01-11T08:36:47.892Z,10.57
2023-01-11T08:39:15.685Z,10.67
2023-01-11T08:41:43.446Z,10.73
2023-01-11T08:44:14.838Z,10.93
2023-01-11T08:46:42.865Z,10.84
2023-01-11T08:49:12.392Z,10.98
2023-01-11T08:51:42.202Z,11.36
2023-01-11T08:54:13.785Z,11.41
2023-01-11T08:56:41.950Z,11.29
2023-01-11T08:59:11.193Z,11.38
2023-01-11T09:01:39.138Z,11.27
2023-01-11T09:04:23.139Z,11.36
2023-01-11T09:06:52.752Z,11.34
2023-01-11T09:09:20.466Z,10.99
2023-01-11T09:11:58.792Z,11.11
2023-01-11T09:14:28.424Z,11.02
2023-01-11T09:16:56.855Z,11.27
2023-01-11T09:19:25.378Z,11.60
2023-01-11T09:21:57.700Z,11.66
2023-01-11T09:24:25.520Z,11.66
2023-01-11T09:26:53.384Z,11.84
2023-01-11T09:29:21.319Z,11.77
2023-01-11T09:31:49.220Z,11.72
2023-01-11T09:34:17.080Z,11.81
2023-01-11T09:36:47.295Z,11.90
2023-01-11T09:39:18.855Z,11.78
2023-01-11T09:42:08.842Z,12.10
2023-01-11T09:44:37.743Z,12.09
2023-01-11T09:47:15.289Z,12.12
2023-01-11T09:49:48.410Z,11.91
2023-01-11T09:52:28.725Z,12.29
2023-01-11T09:54:59.138Z,12.00
2023-01-11T09:57:41.560Z,12.26
2023-01-11T10:00:19.757Z,12.47
2023-01-11T10:03:01.105Z,12.47
2023-01-11T10:05:46.178Z,12.45
2023-01-11T10:18:25.384Z,12.50
2023-01-11T10:18:25.905Z,12.54
2023-01-11T10:20:35.075Z,12.37
2023-01-11T10:23:09.975Z,12.02
2023-01-11T10:25:48.006Z,12.25
2023-01-11T10:28:29.353Z,12.24
2023-01-11T10:31:11.224Z,12.33
2023-01-11T10:33:57.444Z,12.26
2023-01-11T10:36:41.524Z,12.39
2023-01-11T10:39:31.969Z,12.35
2023-01-11T10:42:09.486Z,12.47
2023-01-11T10:44:42.507Z,12.62
2023-01-11T10:47:18.303Z,12.67
2023-01-11T10:49:52.955Z,12.79
2023-01-11T10:52:36.747Z,12.91
2023-01-11T10:55:13.887Z,12.37
2023-01-11T10:58:00.362Z,12.19
2023-01-11T11:00:38.672Z,12.20
2023-01-11T11:03:31.959Z,12.32
2023-01-11T11:06:03.898Z,12.16
2023-01-11T11:08:38.899Z,11.94
2023-01-11T11:11:12.975Z,11.55
2023-01-11T11:13:50.301Z,11.93
2023-01-11T11:16:39.266Z,11.98
2023-01-11T11:19:13.206Z,12.33
2023-01-11T11:21:43.731Z,11.94
2023-01-11T11:24:20.941Z,11.76
2023-01-11T11:26:58.285Z,11.77
2023-01-11T11:29:30.554Z,11.53
2023-01-11T11:32:01.603Z,11.67
2023-01-11T11:34:30.940Z,11.98
2023-01-11T11:37:01.644Z,11.98
2023-01-11T11:39:30.889Z,12.06
2023-01-11T11:42:06.869Z,11.82
2023-01-11T11:44:35.274Z,12.24
2023-01-11T11:47:06.369Z,11.11
2023-01-11T11:49:35.876Z,11.05
2023-01-11T11:52:06.539Z,11.06
2023-01-11T11:54:37.337Z,11.48
2023-01-11T11:57:15.951Z,11.01
2023-01-11T11:59:47.448Z,13.11
2023-01-11T12:02:25.891Z,16.34
2023-01-11T12:04:57.059Z,18.94
2023-01-11T12:07:28.223Z,22.01
2023-01-11T12:10:01.164Z,26.78
2023-01-11T12:12:29.836Z,34.62
2023-01-11T12:15:20.455Z,38.62
2023-01-11T12:17:50.410Z,48.46
2023-01-11T12:20:39.541Z,19.67
2023-01-11T12:23:19.253Z,18.47
2023-01-11T12:26:05.045Z,17.06
2023-01-11T12:28:53.069Z,17.04
2023-01-11T12:31:33.036Z,17.66
2023-01-11T12:34:13.078Z,17.63
2023-01-11T12:36:51.421Z,17.09
2023-01-11T12:39:29.644Z,16.56
2023-01-11T12:42:11.439Z,16.45
2023-01-11T12:45:02.859Z,13.73
2023-01-11T12:47:50.556Z,13.35
2023-01-11T12:50:24.814Z,13.88
2023-01-11T12:53:11.754Z,13.80
2023-01-11T12:55:53.469Z,13.74
2023-01-11T12:58:29.238Z,13.32
2023-01-11T13:01:13.717Z,12.92
2023-01-11T13:04:07.779Z,14.10
2023-01-11T13:06:44.282Z,13.71
2023-01-11T13:09:26.487Z,13.67
2023-01-11T13:12:03.228Z,13.93
2023-01-11T13:14:42.772Z,13.92
2023-01-11T13:17:21.072Z,13.92
2023-01-11T13:19:57.455Z,14.18
2023-01-11T13:22:31.432Z,14.10
2023-01-11T13:25:02.479Z,14.56
2023-01-11T13:27:31.788Z,13.64
2023-01-11T13:30:02.395Z,13.48
2023-01-11T13:32:36.427Z,14.29
2023-01-11T13:35:09.840Z,14.28
2023-01-11T13:37:44.141Z,13.74
2023-01-11T13:40:21.116Z,13.69
2023-01-11T13:42:52.630Z,13.09
2023-01-11T13:45:25.086Z,13.44
2023-01-11T13:47:55.985Z,13.13
2023-01-11T13:50:29.300Z,12.73
2023-01-11T13:53:09.982Z,12.97
2023-01-11T13:55:55.757Z,13.00
2023-01-11T13:58:29.163Z,13.19
2023-01-11T14:01:04.376Z,12.54
2023-01-11T14:03:35.762Z,12.66
2023-01-11T14:06:20.526Z,13.00
2023-01-11T14:09:08.452Z,13.35
2023-01-11T14:11:45.529Z,13.89
2023-01-11T14:14:30.191Z,12.97
2023-01-11T14:17:10.496Z,12.61
2023-01-11T14:19:45.512Z,13.27
2023-01-11T14:22:23.359Z,13.59
2023-01-11T14:25:00.692Z,13.01
2023-01-11T14:27:45.149Z,13.13
2023-01-11T14:30:41.285Z,12.71
2023-01-11T14:33:44.382Z,12.81
2023-01-11T14:36:47.432Z,12.73
2023-01-11T14:39:51.933Z,12.56
2023-01-11T14:42:59.239Z,12.70
2023-01-11T14:45:46.061Z,12.28
2023-01-11T14:48:28.531Z,12.38
2023-01-11T14:51:14.496Z,12.64
2023-01-11T14:53:47.347Z,12.35
2023-01-11T14:56:36.367Z,12.24
2023-01-11T14:59:08.570Z,11.99
2023-01-11T15:02:13.818Z,11.80
2023-01-11T15:05:06.944Z,11.67
2023-01-11T15:07:37.771Z,11.84
2023-01-11T15:10:28.332Z,11.49
2023-01-11T15:12:57.466Z,11.65
2023-01-11T15:15:51.256Z,11.67
2023-01-11T15:18:20.967Z,11.58
2023-01-11T15:20:53.515Z,11.61
2023-01-11T15:23:23.054Z,11.66
2023-01-11T15:26:01.291Z,11.45
2023-01-11T15:28:38.494Z,11.29
2023-01-11T15:31:07.967Z,11.41
2023-01-11T15:33:48.134Z,11.33
2023-01-11T15:36:16.027Z,11.42
2023-01-11T15:38:52.053Z,11.21
2023-01-11T15:41:52.086Z,11.27
2023-01-11T15:44:36.041Z,11.20
2023-01-11T15:47:32.425Z,11.30
2023-01-11T15:50:17.884Z,11.44
2023-01-11T15:53:23.130Z,11.05
2023-01-11T15:56:17.020Z,11.22
2023-01-11T15:59:16.958Z,11.29
2023-01-11T16:02:14.293Z,11.18
2023-01-11T16:04:47.785Z,11.47
2023-01-11T16:07:24.049Z,11.32
2023-01-11T16:10:11.730Z,11.14
2023-01-11T16:12:59.601Z,11.13
2023-01-11T16:15:52.642Z,11.28
2023-01-11T16:18:23.418Z,11.00
2023-01-11T16:21:03.279Z,10.92
2023-01-11T16:23:32.838Z,11.09
2023-01-11T16:26:01.849Z,11.28
2023-01-11T16:28:30.119Z,11.30
2023-01-11T16:31:00.053Z,11.38
2023-01-11T16:33:29.977Z,11.33
2023-01-11T16:36:08.095Z,11.07
2023-01-11T16:38:45.638Z,11.15
2023-01-11T16:41:16.033Z,11.05
2023-01-11T16:43:50.220Z,11.12
2023-01-11T16:47:08.256Z,11.24
2023-01-11T16:49:36.106Z,11.06
2023-01-11T16:52:36.985Z,11.12
2023-01-11T16:55:16.504Z,11.39
2023-01-11T16:57:48.747Z,11.60
2023-01-11T17:00:32.525Z,11.47
2023-01-11T17:03:16.330Z,11.35
2023-01-11T17:06:10.990Z,11.38
2023-01-11T17:08:41.405Z,11.10
2023-01-11T17:11:27.684Z,11.04
2023-01-11T17:14:25.686Z,11.20
2023-01-11T17:16:59.255Z,10.82
2023-01-11T17:19:29.775Z,11.13
2023-01-11T17:22:03.580Z,10.65
2023-01-11T17:24:37.255Z,10.94
2023-01-11T17:27:07.648Z,10.88
2023-01-11T17:29:40.548Z,10.80
2023-01-11T17:32:15.965Z,10.79
2023-01-11T17:34:50.673Z,11.06
2023-01-11T17:37:20.043Z,11.12
2023-01-11T17:39:52.592Z,10.93
2023-01-11T17:42:38.491Z,10.68
2023-01-11T17:45:21.321Z,10.81
2023-01-11T17:47:50.695Z,10.90
2023-01-11T17:50:25.757Z,10.89
2023-01-11T17:53:03.822Z,10.97
2023-01-11T17:55:34.049Z,10.74
2023-01-11T17:58:16.761Z,10.77
2023-01-11T18:01:07.891Z,10.88
2023-01-11T18:03:41.980Z,10.51
2023-01-11T18:06:13.901Z,10.90
2023-01-11T18:08:47.316Z,11.28
2023-01-11T18:11:24.109Z,11.32
2023-01-11T18:13:53.311Z,11.25
2023-01-11T18:16:22.111Z,11.02
2023-01-11T18:18:51.877Z,10.77
2023-01-11T18:21:40.479Z,10.59
2023-01-11T18:24:29.105Z,10.91
2023-01-11T18:27:19.172Z,11.18
2023-01-11T18:29:49.972Z,11.14
2023-01-11T18:32:18.683Z,11.07
2023-01-11T18:34:49.926Z,10.90
2023-01-11T18:37:17.719Z,10.96
2023-01-11T18:39:45.629Z,11.05
2023-01-11T18:42:19.632Z,11.00
2023-01-11T18:44:49.466Z,10.86
2023-01-11T18:47:20.285Z,10.91
2023-01-11T18:49:48.949Z,10.99
2023-01-11T18:52:17.181Z,10.81
2023-01-11T18:54:44.969Z,10.78
2023-01-11T18:57:12.789Z,10.89
2023-01-11T18:59:41.926Z,10.87
2023-01-11T19:02:22.686Z,10.78
2023-01-11T19:04:51.509Z,10.71
2023-01-11T19:07:19.331Z,10.69
2023-01-11T19:09:47.276Z,11.00
2023-01-11T19:12:15.518Z,10.94
2023-01-11T19:14:44.740Z,11.05
2023-01-11T19:17:13.773Z,11.34
2023-01-11T19:19:41.730Z,11.17
2023-01-11T19:22:11.123Z,11.00
2023-01-11T19:24:39.410Z,11.29
2023-01-11T19:27:09.623Z,11.01
2023-01-11T19:29:37.504Z,11.08
2023-01-11T19:32:07.051Z,10.78
2023-01-11T19:34:35.125Z,11.25
2023-01-11T19:37:03.257Z,10.64
2023-01-11T19:39:30.993Z,10.77
2023-01-11T19:41:59.921Z,10.38
2023-01-11T19:44:31.444Z,10.74
2023-01-11T19:47:10.992Z,10.91
2023-01-11T19:49:42.274Z,11.14
2023-01-11T19:52:13.250Z,10.77
2023-01-11T19:54:42.234Z,10.66
2023-01-11T19:57:11.161Z,10.83
2023-01-11T19:59:39.282Z,10.58
2023-01-11T20:02:07.890Z,10.62
2023-01-11T20:04:37.219Z,10.60
2023-01-11T20:07:06.879Z,10.50
2023-01-11T20:09:37.476Z,10.57
2023-01-11T20:12:05.606Z,10.61
2023-01-11T20:14:33.816Z,10.48
2023-01-11T20:17:01.599Z,10.75
2023-01-11T20:19:29.611Z,10.80
2023-01-11T20:21:57.307Z,10.50
2023-01-11T20:24:29.402Z,10.53
2023-01-11T20:26:58.269Z,10.64
2023-01-11T20:29:26.296Z,10.99
2023-01-11T20:31:54.122Z,10.99
2023-01-11T20:34:22.059Z,10.99
2023-01-11T20:36:50.556Z,10.83
2023-01-11T20:39:18.481Z,10.78
2023-01-11T20:41:47.674Z,10.70
2023-01-11T20:44:17.988Z,10.97
2023-01-11T20:46:48.004Z,10.70
2023-01-11T20:49:16.809Z,10.88
2023-01-11T20:51:45.923Z,10.91
2023-01-11T20:54:14.320Z,10.85
2023-01-11T20:56:42.978Z,10.76
2023-01-11T20:59:13.604Z,10.85
2023-01-11T21:01:41.433Z,10.60
2023-01-11T21:04:11.686Z,10.93
2023-01-11T21:06:41.590Z,10.95
2023-01-11T21:09:11.210Z,11.24
2023-01-11T21:11:40.219Z,10.89
2023-01-11T21:14:11.805Z,10.84
2023-01-11T21:16:44.143Z,10.93
2023-01-11T21:19:13.740Z,10.83
2023-01-11T21:21:42.627Z,10.98
2023-01-11T21:24:13.257Z,11.17
2023-01-11T21:26:42.347Z,10.99
2023-01-11T21:29:11.478Z,11.06
2023-01-11T21:31:40.599Z,11.27
2023-01-11T21:34:11.584Z,11.65
2023-01-11T21:36:39.762Z,11.25
2023-01-11T21:39:09.162Z,11.17
2023-01-11T21:41:54.389Z,11.34
2023-01-11T21:44:24.874Z,11.55
2023-01-11T21:46:55.596Z,11.60
2023-01-11T21:49:25.238Z,11.50
2023-01-11T21:51:53.425Z,11.44
2023-01-11T21:54:21.398Z,11.60
2023-01-11T21:56:50.247Z,11.86
2023-01-11T21:59:18.450Z,11.48
2023-01-11T22:01:49.110Z,11.94
2023-01-11T22:04:19.401Z,11.55
2023-01-11T22:06:51.433Z,11.78
2023-01-11T22:09:20.137Z,11.89
2023-01-11T22:11:47.992Z,11.55
2023-01-11T22:14:15.762Z,11.63
2023-01-11T22:16:43.848Z,11.37
2023-01-11T22:19:11.702Z,11.63
2023-01-11T22:21:39.444Z,11.50
2023-01-11T22:24:11.758Z,12.00
2023-01-11T22:26:40.068Z,11.86
2023-01-11T22:29:19.841Z,11.83
2023-01-11T22:31:50.898Z,11.97
2023-01-11T22:34:19.749Z,12.30
2023-01-11T22:36:47.663Z,11.91
2023-01-11T22:39:19.246Z,11.96
2023-01-11T22:41:47.718Z,12.02
2023-01-11T22:44:16.205Z,11.86
2023-01-11T22:46:44.878Z,12.00
2023-01-11T22:49:13.522Z,11.87
2023-01-11T22:51:42.010Z,11.65
2023-01-11T22:54:10.613Z,11.93
2023-01-11T22:56:40.190Z,12.05
2023-01-11T22:59:08.012Z,12.00
2023-01-11T23:01:37.509Z,12.30
2023-01-11T23:04:06.247Z,12.27
2023-01-11T23:06:35.893Z,12.10
2023-01-11T23:09:04.226Z,11.86
2023-01-11T23:11:54.332Z,12.12
2023-01-11T23:14:26.655Z,12.07
2023-01-11T23:16:54.468Z,12.43
2023-01-11T23:19:22.196Z,12.11
2023-01-11T23:21:50.003Z,12.42
2023-01-11T23:24:18.309Z,12.13
2023-01-11T23:26:46.516Z,12.06
2023-01-11T23:29:16.889Z,11.95
2023-01-11T23:31:46.019Z,12.02
2023-01-11T23:34:13.786Z,11.76
2023-01-11T23:36:43.131Z,11.88
2023-01-11T23:39:13.457Z,11.90
2023-01-11T23:41:58.602Z,11.32
2023-01-11T23:44:26.370Z,11.32
2023-01-11T23:47:13.278Z,11.25
2023-01-11T23:49:44.384Z,11.21
2023-01-11T23:52:12.454Z,11.33
2023-01-11T23:54:40.134Z,11.55
2023-01-11T23:57:09.185Z,11.61
2023-01-11T23:59:36.874Z,11.82
